Terminal Aerodrome Forecast
Issued by NWS

Home | Current Version | Previous Version | Graphics & Text | Print | Product List | Glossary On
Versions: 1 2 3 4 5 6 7 8 9 10 11 12 13 14 15 16 17
000
FTUS43 KOAX 270755 AAA
TAFCDR
TAF AMD
KCDR 270755Z 2708/2806 04015G22KT P6SM SCT017 BKN250
      TEMPO 2708/2710 BKN017
     FM271100 32010KT P6SM BKN015
     FM271500 35011KT P6SM BKN150
     FM272100 01012KT P6SM VCTS BKN050CB
     FM280300 01006KT P6SM SCT050=

USA.gov is the U.S. government's official web portal to all federal, state and local government web resources and services.